sensor_id;sensor_type;location;lat;lon;timestamp;pressure;altitude;pressure_sealevel;temperature;humidity
22930;BME280;11630;42.660;23.292;2022-08-21T00:01:00;69846.34;;;20.87;100.00
22930;BME280;11630;42.660;23.292;2022-08-21T00:03:32;69850.20;;;20.90;100.00
22930;BME280;11630;42.660;23.292;2022-08-21T00:06:06;69858.66;;;21.01;100.00
22930;BME280;11630;42.660;23.292;2022-08-21T00:08:37;69864.21;;;20.99;100.00
22930;BME280;11630;42.660;23.292;2022-08-21T00:11:07;69845.76;;;20.93;100.00
22930;BME280;11630;42.660;23.292;2022-08-21T00:13:38;69849.88;;;20.96;100.00
22930;BME280;11630;42.660;23.292;2022-08-21T00:16:10;69848.78;;;20.95;100.00
22930;BME280;11630;42.660;23.292;2022-08-21T00:18:41;69815.27;;;20.67;100.00
22930;BME280;11630;42.660;23.292;2022-08-21T00:21:13;69773.64;;;20.19;100.00
22930;BME280;11630;42.660;23.292;2022-08-21T00:23:43;69744.52;;;20.03;100.00
22930;BME280;11630;42.660;23.292;2022-08-21T00:26:15;69712.67;;;19.77;100.00
22930;BME280;11630;42.660;23.292;2022-08-21T00:28:46;69728.90;;;19.83;100.00
22930;BME280;11630;42.660;23.292;2022-08-21T00:31:17;69742.61;;;19.98;100.00
22930;BME280;11630;42.660;23.292;2022-08-21T00:33:48;69735.18;;;19.97;100.00
22930;BME280;11630;42.660;23.292;2022-08-21T00:36:19;69762.91;;;20.16;100.00
22930;BME280;11630;42.660;23.292;2022-08-21T00:38:50;69751.95;;;20.04;100.00
22930;BME280;11630;42.660;23.292;2022-08-21T00:41:23;69741.52;;;19.97;100.00
22930;BME280;11630;42.660;23.292;2022-08-21T00:43:55;69718.43;;;19.83;100.00
22930;BME280;11630;42.660;23.292;2022-08-21T00:46:28;69710.50;;;19.72;100.00
22930;BME280;11630;42.660;23.292;2022-08-21T00:48:59;69729.20;;;19.79;100.00
22930;BME280;11630;42.660;23.292;2022-08-21T00:51:53;69710.79;;;19.69;100.00
22930;BME280;11630;42.660;23.292;2022-08-21T00:54:24;69724.54;;;19.74;100.00
22930;BME280;11630;42.660;23.292;2022-08-21T00:57:05;69716.81;;;19.77;100.00
22930;BME280;11630;42.660;23.292;2022-08-21T00:59:35;69715.98;;;19.75;100.00
22930;BME280;11630;42.660;23.292;2022-08-21T01:02:07;69711.63;;;19.66;100.00
22930;BME280;11630;42.660;23.292;2022-08-21T01:04:40;69713.55;;;19.69;100.00
22930;BME280;11630;42.660;23.292;2022-08-21T01:07:13;69726.69;;;19.86;100.00
22930;BME280;11630;42.660;23.292;2022-08-21T01:09:45;69710.79;;;19.69;100.00
22930;BME280;11630;42.660;23.292;2022-08-21T01:12:15;69702.84;;;19.63;100.00
22930;BME280;11630;42.660;23.292;2022-08-21T01:14:46;69726.48;;;19.69;100.00
22930;BME280;11630;42.660;23.292;2022-08-21T01:17:18;69699.80;;;19.64;100.00
22930;BME280;11630;42.660;23.292;2022-08-21T01:19:51;69697.94;;;19.51;100.00
22930;BME280;11630;42.660;23.292;2022-08-21T01:22:22;69694.89;;;19.57;100.00
22930;BME280;11630;42.660;23.292;2022-08-21T01:24:52;69692.13;;;19.54;100.00
22930;BME280;11630;42.660;23.292;2022-08-21T01:27:23;69680.88;;;19.48;100.00
22930;BME280;11630;42.660;23.292;2022-08-21T01:30:01;69674.31;;;19.39;100.00
22930;BME280;11630;42.660;23.292;2022-08-21T01:32:29;69708.09;;;19.59;100.00
22930;BME280;11630;42.660;23.292;2022-08-21T01:34:59;69727.80;;;19.82;100.00
22930;BME280;11630;42.660;23.292;2022-08-21T01:37:30;69725.56;;;19.87;100.00
22930;BME280;11630;42.660;23.292;2022-08-21T01:40:00;69729.70;;;19.87;100.00
22930;BME280;11630;42.660;23.292;2022-08-21T01:42:30;69691.31;;;19.55;100.00
22930;BME280;11630;42.660;23.292;2022-08-21T01:45:01;69690.86;;;19.37;100.00
22930;BME280;11630;42.660;23.292;2022-08-21T01:47:32;69665.85;;;19.26;100.00
22930;BME280;11630;42.660;23.292;2022-08-21T01:50:03;69670.02;;;19.21;100.00
22930;BME280;11630;42.660;23.292;2022-08-21T01:52:34;69642.27;;;19.09;100.00
22930;BME280;11630;42.660;23.292;2022-08-21T01:55:05;69648.59;;;19.11;100.00
22930;BME280;11630;42.660;23.292;2022-08-21T01:57:36;69644.98;;;19.14;100.00
22930;BME280;11630;42.660;23.292;2022-08-21T02:00:09;69674.91;;;19.35;100.00
22930;BME280;11630;42.660;23.292;2022-08-21T02:02:40;69703.12;;;19.62;100.00
22930;BME280;11630;42.660;23.292;2022-08-21T02:05:13;69715.95;;;19.80;100.00
22930;BME280;11630;42.660;23.292;2022-08-21T02:07:47;69741.79;;;19.93;100.00
22930;BME280;11630;42.660;23.292;2022-08-21T02:10:19;69723.98;;;19.76;100.00
22930;BME280;11630;42.660;23.292;2022-08-21T02:12:49;69708.86;;;19.71;100.00
22930;BME280;11630;42.660;23.292;2022-08-21T02:15:20;69706.70;;;19.64;100.00
22930;BME280;11630;42.660;23.292;2022-08-21T02:17:52;69700.92;;;19.60;100.00
22930;BME280;11630;42.660;23.292;2022-08-21T02:20:24;69735.23;;;19.85;100.00
22930;BME280;11630;42.660;23.292;2022-08-21T02:22:55;69742.61;;;19.98;100.00
22930;BME280;11630;42.660;23.292;2022-08-21T02:25:27;69757.70;;;20.10;100.00
22930;BME280;11630;42.660;23.292;2022-08-21T02:27:59;69746.13;;;20.07;100.00
22930;BME280;11630;42.660;23.292;2022-08-21T02:30:33;69758.51;;;20.14;100.00
22930;BME280;11630;42.660;23.292;2022-08-21T02:33:03;69759.61;;;20.13;100.00
22930;BME280;11630;42.660;23.292;2022-08-21T02:35:34;69771.16;;;20.18;100.00
22930;BME280;11630;42.660;23.292;2022-08-21T02:38:06;69776.94;;;20.22;100.00
22930;BME280;11630;42.660;23.292;2022-08-21T02:40:41;69779.38;;;20.28;100.00
22930;BME280;11630;42.660;23.292;2022-08-21T02:43:11;69770.55;;;20.30;100.00
22930;BME280;11630;42.660;23.292;2022-08-21T02:45:43;69776.62;;;20.28;100.00
22930;BME280;11630;42.660;23.292;2022-08-21T02:48:21;69794.20;;;20.39;100.00
22930;BME280;11630;42.660;23.292;2022-08-21T02:50:48;69803.75;;;20.54;100.00
22930;BME280;11630;42.660;23.292;2022-08-21T02:53:19;69700.61;;;19.66;100.00
22930;BME280;11630;42.660;23.292;2022-08-21T02:55:49;69656.78;;;19.24;100.00
22930;BME280;11630;42.660;23.292;2022-08-21T02:58:25;69643.11;;;19.01;100.00
22930;BME280;11630;42.660;23.292;2022-08-21T03:00:56;69643.08;;;19.11;100.00
22930;BME280;11630;42.660;23.292;2022-08-21T03:03:28;69665.84;;;19.31;100.00
22930;BME280;11630;42.660;23.292;2022-08-21T03:05:59;69675.41;;;19.40;100.00
22930;BME280;11630;42.660;23.292;2022-08-21T03:08:30;69679.51;;;19.48;100.00
22930;BME280;11630;42.660;23.292;2022-08-21T03:11:01;69672.11;;;19.40;100.00
22930;BME280;11630;42.660;23.292;2022-08-21T03:13:32;69688.05;;;19.47;100.00
22930;BME280;11630;42.660;23.292;2022-08-21T03:16:03;69720.39;;;19.79;100.00
22930;BME280;11630;42.660;23.292;2022-08-21T03:18:33;69752.75;;;20.08;100.00
22930;BME280;11630;42.660;23.292;2022-08-21T03:21:03;69742.64;;;19.88;100.00
22930;BME280;11630;42.660;23.292;2022-08-21T03:23:34;69733.26;;;19.92;100.00
22930;BME280;11630;42.660;23.292;2022-08-21T03:26:03;69721.73;;;19.84;100.00
22930;BME280;11630;42.660;23.292;2022-08-21T03:28:35;69712.13;;;19.74;100.00
22930;BME280;11630;42.660;23.292;2022-08-21T03:31:06;69706.40;;;19.67;100.00
22930;BME280;11630;42.660;23.292;2022-08-21T03:33:37;69712.45;;;19.68;100.00
22930;BME280;11630;42.660;23.292;2022-08-21T03:36:08;69729.16;;;19.84;100.00
22930;BME280;11630;42.660;23.292;2022-08-21T03:38:39;69729.66;;;19.92;100.00
22930;BME280;11630;42.660;23.292;2022-08-21T03:41:10;69734.63;;;19.97;100.00
22930;BME280;11630;42.660;23.292;2022-08-21T03:43:40;69746.11;;;20.09;100.00
22930;BME280;11630;42.660;23.292;2022-08-21T03:46:11;69762.92;;;20.13;100.00
22930;BME280;11630;42.660;23.292;2022-08-21T03:48:41;69773.91;;;20.23;100.00
22930;BME280;11630;42.660;23.292;2022-08-21T03:51:12;69773.62;;;20.22;100.00
22930;BME280;11630;42.660;23.292;2022-08-21T03:53:43;69772.78;;;20.25;100.00
22930;BME280;11630;42.660;23.292;2022-08-21T03:56:15;69765.72;;;20.09;100.00
22930;BME280;11630;42.660;23.292;2022-08-21T03:58:44;69724.77;;;19.83;100.00
22930;BME280;11630;42.660;23.292;2022-08-21T04:01:15;69718.45;;;19.78;100.00
22930;BME280;11630;42.660;23.292;2022-08-21T04:03:45;69731.04;;;19.92;100.00
22930;BME280;11630;42.660;23.292;2022-08-21T04:06:15;69744.81;;;20.00;100.00
22930;BME280;11630;42.660;23.292;2022-08-21T04:08:46;69773.62;;;20.22;100.00
22930;BME280;11630;42.660;23.292;2022-08-21T04:11:17;69749.71;;;20.09;100.00
22930;BME280;11630;42.660;23.292;2022-08-21T04:13:47;69780.72;;;20.33;100.00
22930;BME280;11630;42.660;23.292;2022-08-21T04:16:19;69777.18;;;20.26;100.00
22930;BME280;11630;42.660;23.292;2022-08-21T04:18:50;69759.06;;;20.12;100.00
22930;BME280;11630;42.660;23.292;2022-08-21T04:21:21;69763.48;;;20.11;100.00
22930;BME280;11630;42.660;23.292;2022-08-21T04:23:54;69742.30;;;20.04;100.00
22930;BME280;11630;42.660;23.292;2022-08-21T04:26:25;69756.63;;;20.07;100.00
22930;BME280;11630;42.660;23.292;2022-08-21T04:28:57;69740.41;;;19.96;100.00
22930;BME280;11630;42.660;23.292;2022-08-21T04:31:28;69724.50;;;19.81;100.00
22930;BME280;11630;42.660;23.292;2022-08-21T04:33:59;69698.44;;;19.59;100.00
22930;BME280;11630;42.660;23.292;2022-08-21T04:36:31;69706.66;;;19.69;100.00
22930;BME280;11630;42.660;23.292;2022-08-21T04:39:02;69715.41;;;19.79;100.00
22930;BME280;11630;42.660;23.292;2022-08-21T04:41:33;69700.92;;;19.60;100.00
22930;BME280;11630;42.660;23.292;2022-08-21T04:44:04;69722.27;;;19.84;100.00
22930;BME280;11630;42.660;23.292;2022-08-21T04:46:35;69738.73;;;19.99;100.00
22930;BME280;11630;42.660;23.292;2022-08-21T04:49:06;69753.09;;;20.00;100.00
22930;BME280;11630;42.660;23.292;2022-08-21T04:51:38;69761.27;;;20.14;100.00
22930;BME280;11630;42.660;23.292;2022-08-21T04:54:17;69721.48;;;19.77;100.00
22930;BME280;11630;42.660;23.292;2022-08-21T04:56:53;69727.78;;;19.87;100.00
22930;BME280;11630;42.660;23.292;2022-08-21T04:59:28;69753.53;;;20.15;100.00
22930;BME280;11630;42.660;23.292;2022-08-21T05:01:57;69775.28;;;20.21;100.00
22930;BME280;11630;42.660;23.292;2022-08-21T05:04:29;69782.09;;;20.33;100.00
22930;BME280;11630;42.660;23.292;2022-08-21T05:07:02;69759.61;;;20.15;100.00
22930;BME280;11630;42.660;23.292;2022-08-21T05:09:33;69775.28;;;20.23;100.00
22930;BME280;11630;42.660;23.292;2022-08-21T05:12:03;69779.88;;;20.36;100.00
22930;BME280;11630;42.660;23.292;2022-08-21T05:14:37;69769.16;;;20.28;100.00
22930;BME280;11630;42.660;23.292;2022-08-21T05:17:08;69771.14;;;20.23;100.00
22930;BME280;11630;42.660;23.292;2022-08-21T05:19:37;69750.85;;;20.05;100.00
22930;BME280;11630;42.660;23.292;2022-08-21T05:22:11;69737.64;;;20.01;100.00
22930;BME280;11630;42.660;23.292;2022-08-21T05:24:42;69722.84;;;19.82;100.00
22930;BME280;11630;42.660;23.292;2022-08-21T05:27:12;69714.33;;;19.76;100.00
22930;BME280;11630;42.660;23.292;2022-08-21T05:29:44;69709.66;;;19.73;100.00
22930;BME280;11630;42.660;23.292;2022-08-21T05:32:15;69713.79;;;19.73;100.00
22930;BME280;11630;42.660;23.292;2022-08-21T05:34:47;69722.56;;;19.83;100.00
22930;BME280;11630;42.660;23.292;2022-08-21T05:37:17;69740.41;;;19.96;100.00
22930;BME280;11630;42.660;23.292;2022-08-21T05:39:49;69779.66;;;20.27;100.00
22930;BME280;11630;42.660;23.292;2022-08-21T05:42:20;69789.52;;;20.39;100.00
22930;BME280;11630;42.660;23.292;2022-08-21T05:44:51;69793.95;;;20.35;100.00
22930;BME280;11630;42.660;23.292;2022-08-21T05:47:21;69786.03;;;20.22;100.00
22930;BME280;11630;42.660;23.292;2022-08-21T05:49:52;69771.70;;;20.21;100.00
22930;BME280;11630;42.660;23.292;2022-08-21T05:52:23;69792.26;;;20.41;100.00
22930;BME280;11630;42.660;23.292;2022-08-21T05:54:54;69799.94;;;20.48;100.00
22930;BME280;11630;42.660;23.292;2022-08-21T05:57:26;69783.00;;;20.23;100.00
22930;BME280;11630;42.660;23.292;2022-08-21T05:59:57;69774.70;;;20.25;100.00
22930;BME280;11630;42.660;23.292;2022-08-21T06:02:28;69801.03;;;20.49;100.00
22930;BME280;11630;42.660;23.292;2022-08-21T06:04:59;69785.64;;;20.40;100.00
22930;BME280;11630;42.660;23.292;2022-08-21T06:07:30;69783.52;;;20.28;100.00
22930;BME280;11630;42.660;23.292;2022-08-21T06:10:00;69793.95;;;20.35;100.00
22930;BME280;11630;42.660;23.292;2022-08-21T06:12:31;69803.75;;;20.54;100.00
22930;BME280;11630;42.660;23.292;2022-08-21T06:15:02;69779.04;;;20.37;100.00
22930;BME280;11630;42.660;23.292;2022-08-21T06:17:33;69801.03;;;20.49;100.00
22930;BME280;11630;42.660;23.292;2022-08-21T06:20:04;69776.56;;;20.38;100.00
22930;BME280;11630;42.660;23.292;2022-08-21T06:22:35;69808.44;;;20.57;100.00
22930;BME280;11630;42.660;23.292;2022-08-21T06:25:06;69830.16;;;20.68;100.00
22930;BME280;11630;42.660;23.292;2022-08-21T06:27:37;69835.66;;;20.73;100.00
22930;BME280;11630;42.660;23.292;2022-08-21T06:30:09;69845.45;;;20.94;100.00
22930;BME280;11630;42.660;23.292;2022-08-21T06:32:39;69852.64;;;20.96;100.00
22930;BME280;11630;42.660;23.292;2022-08-21T06:35:09;69844.88;;;20.99;100.00
22930;BME280;11630;42.660;23.292;2022-08-21T06:37:39;69858.13;;;21.01;100.00
22930;BME280;11630;42.660;23.292;2022-08-21T06:40:13;69890.52;;;21.30;100.00
22930;BME280;11630;42.660;23.292;2022-08-21T06:42:46;69884.73;;;21.26;100.00
22930;BME280;11630;42.660;23.292;2022-08-21T06:45:17;69892.48;;;21.26;100.00
22930;BME280;11630;42.660;23.292;2022-08-21T06:47:47;69881.99;;;21.24;100.00
22930;BME280;11630;42.660;23.292;2022-08-21T06:50:19;69921.33;;;21.48;100.00
22930;BME280;11630;42.660;23.292;2022-08-21T06:52:57;69888.30;;;21.31;100.00
22930;BME280;11630;42.660;23.292;2022-08-21T06:55:22;69878.95;;;21.25;100.00
22930;BME280;11630;42.660;23.292;2022-08-21T06:57:53;69890.54;;;21.25;100.00
22930;BME280;11630;42.660;23.292;2022-08-21T07:00:24;69900.62;;;21.46;100.00
22930;BME280;11630;42.660;23.292;2022-08-21T07:02:57;69947.73;;;21.69;100.00
22930;BME280;11630;42.660;23.292;2022-08-21T07:05:31;69920.50;;;21.49;100.00
22930;BME280;11630;42.660;23.292;2022-08-21T07:08:02;69920.50;;;21.49;100.00
22930;BME280;11630;42.660;23.292;2022-08-21T07:10:33;69875.16;;;21.14;100.00
22930;BME280;11630;42.660;23.292;2022-08-21T07:13:04;69928.22;;;21.56;100.00
22930;BME280;11630;42.660;23.292;2022-08-21T07:15:35;69902.26;;;21.47;100.00
22930;BME280;11630;42.660;23.292;2022-08-21T07:18:04;69935.86;;;21.68;100.00
22930;BME280;11630;42.660;23.292;2022-08-21T07:20:35;69928.98;;;21.63;100.00
22930;BME280;11630;42.660;23.292;2022-08-21T07:23:09;69922.95;;;21.57;100.00
22930;BME280;11630;42.660;23.292;2022-08-21T07:25:39;69946.03;;;21.75;100.00
22930;BME280;11630;42.660;23.292;2022-08-21T07:28:10;69957.81;;;21.87;100.00
22930;BME280;11630;42.660;23.292;2022-08-21T07:30:40;70049.17;;;22.55;100.00
22930;BME280;11630;42.660;23.292;2022-08-21T07:33:12;70095.34;;;22.97;100.00
22930;BME280;11630;42.660;23.292;2022-08-21T07:35:43;70109.55;;;23.25;100.00
22930;BME280;11630;42.660;23.292;2022-08-21T07:38:14;70100.59;;;23.03;100.00
22930;BME280;11630;42.660;23.292;2022-08-21T07:40:46;70108.05;;;23.34;100.00
22930;BME280;11630;42.660;23.292;2022-08-21T07:43:17;70056.79;;;22.72;100.00
22930;BME280;11630;42.660;23.292;2022-08-21T07:45:48;70136.59;;;23.36;100.00
22930;BME280;11630;42.660;23.292;2022-08-21T07:48:19;70133.15;;;23.48;100.00
22930;BME280;11630;42.660;23.292;2022-08-21T07:50:50;70155.20;;;23.63;100.00
22930;BME280;11630;42.660;23.292;2022-08-21T07:53:21;70175.46;;;23.63;100.00
22930;BME280;11630;42.660;23.292;2022-08-21T07:55:52;70063.44;;;22.73;100.00
22930;BME280;11630;42.660;23.292;2022-08-21T07:58:23;70062.22;;;22.84;100.00
22930;BME280;11630;42.660;23.292;2022-08-21T08:00:52;70058.09;;;22.79;100.00
22930;BME280;11630;42.660;23.292;2022-08-21T08:03:24;70045.25;;;22.61;100.00
22930;BME280;11630;42.660;23.292;2022-08-21T08:05:55;70021.05;;;22.42;100.00
22930;BME280;11630;42.660;23.292;2022-08-21T08:08:27;70077.64;;;22.93;100.00
22930;BME280;11630;42.660;23.292;2022-08-21T08:10:58;70071.02;;;22.90;100.00
22930;BME280;11630;42.660;23.292;2022-08-21T08:13:30;70177.20;;;23.86;100.00
22930;BME280;11630;42.660;23.292;2022-08-21T08:16:01;70213.59;;;24.11;100.00
22930;BME280;11630;42.660;23.292;2022-08-21T08:18:32;70214.13;;;24.14;100.00
22930;BME280;11630;42.660;23.292;2022-08-21T08:21:04;70294.00;;;24.81;100.00
22930;BME280;11630;42.660;23.292;2022-08-21T08:23:34;70185.78;;;23.87;100.00
22930;BME280;11630;42.660;23.292;2022-08-21T08:26:05;70139.03;;;23.42;100.00
22930;BME280;11630;42.660;23.292;2022-08-21T08:28:35;70178.56;;;23.88;100.00
22930;BME280;11630;42.660;23.292;2022-08-21T08:31:06;70272.46;;;24.67;100.00
22930;BME280;11630;42.660;23.292;2022-08-21T08:33:37;70313.09;;;25.16;100.00
22930;BME280;11630;42.660;23.292;2022-08-21T08:36:13;70275.64;;;24.82;100.00
22930;BME280;11630;42.660;23.292;2022-08-21T08:38:44;70346.02;;;25.32;100.00
22930;BME280;11630;42.660;23.292;2022-08-21T08:41:17;70293.20;;;24.77;100.00
22930;BME280;11630;42.660;23.292;2022-08-21T08:43:56;70399.99;;;25.83;100.00
22930;BME280;11630;42.660;23.292;2022-08-21T08:46:31;70448.95;;;26.11;100.00
22930;BME280;11630;42.660;23.292;2022-08-21T08:49:06;70471.84;;;26.30;100.00
22930;BME280;11630;42.660;23.292;2022-08-21T08:51:46;70468.63;;;26.43;100.00
22930;BME280;11630;42.660;23.292;2022-08-21T08:54:25;70459.48;;;26.37;100.00
22930;BME280;11630;42.660;23.292;2022-08-21T08:56:52;70456.63;;;26.20;100.00
22930;BME280;11630;42.660;23.292;2022-08-21T08:59:29;70459.39;;;26.46;98.64
22930;BME280;11630;42.660;23.292;2022-08-21T09:01:58;70551.28;;;27.02;97.10
22930;BME280;11630;42.660;23.292;2022-08-21T09:04:29;70506.28;;;26.86;99.69
22930;BME280;11630;42.660;23.292;2022-08-21T09:07:40;70518.41;;;26.97;96.02
22930;BME280;11630;42.660;23.292;2022-08-21T09:10:05;70539.88;;;27.00;96.20
22930;BME280;11630;42.660;23.292;2022-08-21T09:21:09;70411.61;;;25.88;95.39
22930;BME280;11630;42.660;23.292;2022-08-21T09:23:49;70465.42;;;26.31;94.31
22930;BME280;11630;42.660;23.292;2022-08-21T09:26:19;70446.56;;;26.24;94.94
22930;BME280;11630;42.660;23.292;2022-08-21T09:28:58;70372.99;;;25.56;100.00
22930;BME280;11630;42.660;23.292;2022-08-21T09:31:35;70431.06;;;26.15;93.92
22930;BME280;11630;42.660;23.292;2022-08-21T09:34:05;70397.84;;;25.76;97.27
22930;BME280;11630;42.660;23.292;2022-08-21T09:39:12;70458.41;;;26.36;93.84
22930;BME280;11630;42.660;23.292;2022-08-21T09:41:44;70560.97;;;27.09;88.19
22930;BME280;11630;42.660;23.292;2022-08-21T09:44:23;70571.12;;;27.22;88.15
22930;BME280;11630;42.660;23.292;2022-08-21T09:46:53;70466.77;;;26.36;90.70
22930;BME280;11630;42.660;23.292;2022-08-21T09:49:36;70492.48;;;26.52;91.91
22930;BME280;11630;42.660;23.292;2022-08-21T09:52:18;70503.59;;;26.57;88.89
22930;BME280;11630;42.660;23.292;2022-08-21T09:54:50;70456.08;;;26.43;88.66
22930;BME280;11630;42.660;23.292;2022-08-21T09:57:25;70416.57;;;25.93;91.35
22930;BME280;11630;42.660;23.292;2022-08-21T10:00:30;70425.63;;;26.05;90.77
22930;BME280;11630;42.660;23.292;2022-08-21T10:03:13;70443.02;;;26.17;91.99
22930;BME280;11630;42.660;23.292;2022-08-21T10:05:51;70440.23;;;26.17;89.44
22930;BME280;11630;42.660;23.292;2022-08-21T10:08:23;70470.16;;;26.31;88.95
22930;BME280;11630;42.660;23.292;2022-08-21T10:10:57;70433.23;;;25.98;89.80
22930;BME280;11630;42.660;23.292;2022-08-21T10:21:39;70499.42;;;26.55;89.88
22930;BME280;11630;42.660;23.292;2022-08-21T10:27:14;70663.94;;;28.17;84.90
22930;BME280;11630;42.660;23.292;2022-08-21T10:32:37;70667.73;;;28.06;86.87
22930;BME280;11630;42.660;23.292;2022-08-21T10:35:23;70691.05;;;28.39;84.35
22930;BME280;11630;42.660;23.292;2022-08-21T10:38:27;70659.96;;;28.02;86.20
22930;BME280;11630;42.660;23.292;2022-08-21T10:40:59;70685.91;;;28.28;82.94
22930;BME280;11630;42.660;23.292;2022-08-21T10:43:35;70767.94;;;29.00;81.87
22930;BME280;11630;42.660;23.292;2022-08-21T10:48:49;70843.34;;;29.69;78.23
22930;BME280;11630;42.660;23.292;2022-08-21T10:51:40;70778.66;;;29.14;78.79
22930;BME280;11630;42.660;23.292;2022-08-21T10:54:18;70779.83;;;29.10;77.53
22930;BME280;11630;42.660;23.292;2022-08-21T10:56:47;70860.95;;;29.90;72.08
22930;BME280;11630;42.660;23.292;2022-08-21T10:59:30;70920.19;;;30.39;69.28
22930;BME280;11630;42.660;23.292;2022-08-21T11:02:09;70955.61;;;30.70;67.78
22930;BME280;11630;42.660;23.292;2022-08-21T11:04:44;70941.78;;;30.58;68.19
22930;BME280;11630;42.660;23.292;2022-08-21T11:07:24;70934.33;;;30.50;66.75
22930;BME280;11630;42.660;23.292;2022-08-21T11:09:54;70962.53;;;30.75;67.97
22930;BME280;11630;42.660;23.292;2022-08-21T11:12:35;71002.05;;;31.15;67.21
22930;BME280;11630;42.660;23.292;2022-08-21T11:20:40;70917.73;;;30.35;69.11
22930;BME280;11630;42.660;23.292;2022-08-21T11:23:14;70906.69;;;30.25;69.61
22930;BME280;11630;42.660;23.292;2022-08-21T11:25:47;70866.28;;;29.91;70.21
22930;BME280;11630;42.660;23.292;2022-08-21T11:28:20;70925.22;;;30.41;68.27
22930;BME280;11630;42.660;23.292;2022-08-21T11:31:20;70902.52;;;30.23;68.95
22930;BME280;11630;42.660;23.292;2022-08-21T11:36:51;70920.17;;;30.41;66.76
22930;BME280;11630;42.660;23.292;2022-08-21T11:45:10;70897.45;;;30.23;64.54
22930;BME280;11630;42.660;23.292;2022-08-21T11:50:17;70847.92;;;29.82;66.75
22930;BME280;11630;42.660;23.292;2022-08-21T11:53:09;70837.27;;;29.64;66.16
22930;BME280;11630;42.660;23.292;2022-08-21T11:55:40;70771.72;;;29.09;69.33
22930;BME280;11630;42.660;23.292;2022-08-21T11:58:25;70670.97;;;28.14;72.08
22930;BME280;11630;42.660;23.292;2022-08-21T12:00:59;70608.33;;;27.57;75.17
22930;BME280;11630;42.660;23.292;2022-08-21T12:03:34;70599.03;;;27.65;76.91
22930;BME280;11630;42.660;23.292;2022-08-21T12:06:11;70635.14;;;27.80;75.76
22930;BME280;11630;42.660;23.292;2022-08-21T12:08:46;70584.64;;;27.33;76.70
22930;BME280;11630;42.660;23.292;2022-08-21T12:16:45;70542.30;;;27.27;80.10
22930;BME280;11630;42.660;23.292;2022-08-21T12:24:50;70523.52;;;26.89;82.69
22930;BME280;11630;42.660;23.292;2022-08-21T12:27:29;70546.84;;;27.00;82.95
22930;BME280;11630;42.660;23.292;2022-08-21T12:30:20;70533.89;;;27.09;82.81
22930;BME280;11630;42.660;23.292;2022-08-21T12:32:43;70539.80;;;27.05;82.78
22930;BME280;11630;42.660;23.292;2022-08-21T12:35:25;70437.63;;;26.26;86.49
22930;BME280;11630;42.660;23.292;2022-08-21T12:38:09;70436.13;;;26.12;89.00
22930;BME280;11630;42.660;23.292;2022-08-21T12:40:40;70434.41;;;26.15;87.43
22930;BME280;11630;42.660;23.292;2022-08-21T12:43:19;70435.42;;;26.00;87.04
22930;BME280;11630;42.660;23.292;2022-08-21T12:45:48;70430.27;;;26.13;88.70
22930;BME280;11630;42.660;23.292;2022-08-21T12:48:35;70452.55;;;26.34;85.58
22930;BME280;11630;42.660;23.292;2022-08-21T12:51:10;70446.56;;;26.24;86.26
22930;BME280;11630;42.660;23.292;2022-08-21T12:53:51;70479.84;;;26.39;85.99
22930;BME280;11630;42.660;23.292;2022-08-21T12:56:28;70462.83;;;26.40;86.70
22930;BME280;11630;42.660;23.292;2022-08-21T12:59:00;70435.70;;;26.23;88.17
22930;BME280;11630;42.660;23.292;2022-08-21T13:01:46;70465.61;;;26.40;87.85
22930;BME280;11630;42.660;23.292;2022-08-21T13:04:19;70452.83;;;26.36;87.90
22930;BME280;11630;42.660;23.292;2022-08-21T13:06:50;70434.02;;;26.02;90.57
22930;BME280;11630;42.660;23.292;2022-08-21T13:09:28;70413.81;;;25.90;90.42
22930;BME280;11630;42.660;23.292;2022-08-21T13:12:00;70441.48;;;26.05;90.37
22930;BME280;11630;42.660;23.292;2022-08-21T13:14:44;70433.77;;;26.22;89.91
22930;BME280;11630;42.660;23.292;2022-08-21T13:17:19;70457.13;;;26.26;89.47
22930;BME280;11630;42.660;23.292;2022-08-21T13:20:05;70447.66;;;26.25;90.35
22930;BME280;11630;42.660;23.292;2022-08-21T13:22:31;70393.86;;;25.82;94.60
22930;BME280;11630;42.660;23.292;2022-08-21T13:25:02;70396.45;;;25.76;95.48
22930;BME280;11630;42.660;23.292;2022-08-21T13:27:33;70421.38;;;26.10;92.88
22930;BME280;11630;42.660;23.292;2022-08-21T13:30:18;70499.70;;;26.56;89.77
22930;BME280;11630;42.660;23.292;2022-08-21T13:32:48;70500.38;;;26.68;89.61
22930;BME280;11630;42.660;23.292;2022-08-21T13:35:22;70523.56;;;26.87;87.94
22930;BME280;11630;42.660;23.292;2022-08-21T13:37:51;70536.69;;;27.09;88.05
22930;BME280;11630;42.660;23.292;2022-08-21T13:40:30;70553.20;;;27.05;86.06
22930;BME280;11630;42.660;23.292;2022-08-21T13:43:01;70545.45;;;27.00;85.75
22930;BME280;11630;42.660;23.292;2022-08-21T13:45:34;70551.22;;;27.07;85.57
22930;BME280;11630;42.660;23.292;2022-08-21T13:48:04;70481.94;;;26.50;90.54
22930;BME280;11630;42.660;23.292;2022-08-21T13:50:36;70519.34;;;26.89;90.16
22930;BME280;11630;42.660;23.292;2022-08-21T13:53:20;70507.70;;;26.62;90.47
22930;BME280;11630;42.660;23.292;2022-08-21T13:55:43;70479.14;;;26.50;92.58
22930;BME280;11630;42.660;23.292;2022-08-21T13:58:13;70497.88;;;26.67;90.65
22930;BME280;11630;42.660;23.292;2022-08-21T14:00:50;70430.49;;;25.93;94.37
22930;BME280;11630;42.660;23.292;2022-08-21T14:03:40;70395.00;;;25.81;96.57
22930;BME280;11630;42.660;23.292;2022-08-21T14:06:17;70401.54;;;25.92;98.04
22930;BME280;11630;42.660;23.292;2022-08-21T14:08:49;70439.98;;;26.15;96.15